Time;durP1;ratioP1;P1;durP2;ratioP2;P2;SDS_P1;SDS_P2;PMS_P1;PMS_P2;Temp;Humidity;BMP_temperature;BMP_pressure;BME280_temperature;BME280_humidity;BME280_pressure;Samples;Min_cycle;Max_cycle;Signal;HPM_P1;HPM_P2
2022/12/14 00:00:53;;;;;;;31.52;19.27;;;5.70;99.90;;;;;;5030033;28;20072;-70
2022/12/14 00:03:58;;;;;;;32.85;22.60;;;5.60;99.90;;;;;;5030128;28;20072;-70
2022/12/14 00:07:02;;;;;;;31.35;20.77;;;5.60;99.90;;;;;;5030391;28;20048;-71
2022/12/14 00:10:07;;;;;;;28.73;19.02;;;5.60;99.90;;;;;;5029446;28;20044;-70
2022/12/14 00:13:15;;;;;;;27.02;17.67;;;5.50;99.90;;;;;;5030229;28;20487;-70
2022/12/14 00:16:21;;;;;;;34.72;19.67;;;5.50;99.90;;;;;;5030097;28;20043;-70
2022/12/14 00:19:25;;;;;;;28.83;19.95;;;5.50;99.90;;;;;;5030575;28;20052;-70
2022/12/14 00:22:29;;;;;;;30.83;19.17;;;5.60;99.90;;;;;;5030143;28;20590;-70
2022/12/14 00:25:33;;;;;;;28.13;19.08;;;5.60;99.90;;;;;;5031454;28;20117;-70
2022/12/14 00:28:38;;;;;;;32.35;19.08;;;5.50;99.90;;;;;;5033999;28;20048;-70
2022/12/14 00:31:42;;;;;;;32.28;21.67;;;5.50;99.90;;;;;;5033427;28;20052;-70
2022/12/14 00:34:47;;;;;;;30.25;20.08;;;5.60;99.90;;;;;;5032687;28;20052;-70
2022/12/14 00:37:51;;;;;;;34.90;21.73;;;5.60;99.90;;;;;;5033822;28;20491;-71
2022/12/14 00:40:55;;;;;;;37.38;23.30;;;5.60;99.90;;;;;;5033869;28;20052;-70
2022/12/14 00:44:00;;;;;;;35.40;23.27;;;5.60;99.90;;;;;;5033606;28;20056;-70
2022/12/14 00:47:04;;;;;;;41.15;24.58;;;5.70;99.90;;;;;;5033965;28;20140;-70
2022/12/14 00:50:09;;;;;;;36.38;22.42;;;5.70;99.90;;;;;;5033207;28;20048;-71
2022/12/14 00:53:14;;;;;;;77.68;25.23;;;5.70;99.90;;;;;;5033577;28;20045;-70
2022/12/14 00:56:17;;;;;;;37.05;22.80;;;5.70;99.90;;;;;;5033367;28;20053;-70
2022/12/14 00:59:21;;;;;;;35.28;21.80;;;5.80;99.90;;;;;;5034043;28;20396;-70
2022/12/14 01:02:26;;;;;;;38.53;24.45;;;5.80;99.90;;;;;;5033653;28;20060;-70
2022/12/14 01:05:33;;;;;;;37.05;24.42;;;5.80;99.90;;;;;;5032863;28;20396;-70
2022/12/14 01:08:37;;;;;;;38.63;24.95;;;5.80;99.90;;;;;;5032617;28;20052;-70
2022/12/14 01:11:42;;;;;;;41.55;24.00;;;5.60;99.90;;;;;;5033209;28;20401;-70
2022/12/14 01:14:48;;;;;;;43.90;25.45;;;5.50;99.90;;;;;;5032998;28;20037;-71
2022/12/14 01:17:52;;;;;;;41.85;25.83;;;5.40;99.90;;;;;;5033047;28;20491;-70
2022/12/14 01:21:14;;;;;;;88.30;26.85;;;5.30;99.90;;;;;;5033024;28;20052;-70
2022/12/14 01:24:19;;;;;;;124.13;24.88;;;5.00;99.90;;;;;;5032789;28;20045;-70
2022/12/14 01:27:23;;;;;;;32.13;20.00;;;5.00;99.90;;;;;;5032933;28;20056;-70
2022/12/14 01:30:26;;;;;;;33.80;19.90;;;5.00;99.90;;;;;;5032849;28;20056;-71
2022/12/14 01:33:30;;;;;;;38.85;23.17;;;5.10;99.90;;;;;;5032449;28;20388;-70
2022/12/14 01:36:35;;;;;;;39.47;23.58;;;5.10;99.90;;;;;;5031807;28;20045;-70
2022/12/14 01:39:41;;;;;;;30.05;18.98;;;5.10;99.90;;;;;;5032776;28;20056;-70
2022/12/14 01:42:45;;;;;;;35.60;22.75;;;5.20;99.90;;;;;;5032979;28;20420;-70
2022/12/14 01:45:54;;;;;;;35.30;23.20;;;5.20;99.90;;;;;;5032607;28;20056;-70
2022/12/14 01:49:09;;;;;;;28.75;19.30;;;5.20;99.90;;;;;;5032433;28;20053;-70
2022/12/14 01:52:35;;;;;;;32.53;20.35;;;5.30;99.90;;;;;;5032894;28;20044;-70
2022/12/14 01:55:43;;;;;;;40.13;21.10;;;5.30;99.90;;;;;;5032541;28;20040;-70
2022/12/14 01:58:47;;;;;;;26.38;17.35;;;5.30;99.90;;;;;;5032599;28;20045;-70
2022/12/14 02:01:52;;;;;;;26.48;17.42;;;5.30;99.90;;;;;;5032637;28;20049;-70
2022/12/14 02:04:59;;;;;;;29.10;17.45;;;5.30;99.90;;;;;;5032074;28;20060;-70
2022/12/14 02:08:05;;;;;;;28.80;16.33;;;5.30;99.90;;;;;;5032126;28;20036;-70
2022/12/14 02:11:11;;;;;;;23.35;14.88;;;5.40;99.90;;;;;;5032286;28;20319;-70
2022/12/14 02:14:15;;;;;;;25.02;16.35;;;5.40;99.90;;;;;;5031685;28;20045;-70
2022/12/14 02:17:19;;;;;;;22.45;14.32;;;5.40;99.90;;;;;;5032426;28;20044;-70
2022/12/14 02:20:29;;;;;;;20.73;13.55;;;5.50;99.90;;;;;;5032337;28;20499;-70
2022/12/14 02:23:51;;;;;;;19.80;13.27;;;5.50;99.90;;;;;;5031213;28;20052;-70
2022/12/14 02:27:09;;;;;;;21.27;14.27;;;5.40;99.90;;;;;;5032117;28;20152;-70
2022/12/14 02:30:15;;;;;;;20.73;13.40;;;5.50;99.90;;;;;;5031808;28;20053;-70
2022/12/14 02:34:00;;;;;;;21.80;13.05;;;5.50;99.90;;;;;;5031536;28;20412;-70
2022/12/14 02:37:34;;;;;;;19.77;12.32;;;5.50;99.90;;;;;;5031681;28;20048;-70
2022/12/14 02:40:50;;;;;;;19.58;11.77;;;5.50;99.90;;;;;;5031735;28;20412;-70
2022/12/14 02:44:14;;;;;;;17.35;12.10;;;5.60;99.90;;;;;;5031080;28;20048;-70
2022/12/14 02:47:22;;;;;;;17.00;11.23;;;5.50;99.90;;;;;;5031266;28;20055;-70
2022/12/14 02:50:42;;;;;;;22.85;11.10;;;5.60;99.90;;;;;;5031342;28;20057;-70
2022/12/14 02:53:53;;;;;;;13.07;9.63;;;5.60;99.90;;;;;;5030942;28;20036;-70
2022/12/14 02:57:07;;;;;;;;;;;5.50;99.90;;;;;;5031769;28;20041;-70
2022/12/14 03:00:12;;;;;;;16.13;9.75;;;5.60;99.90;;;;;;5031564;28;19916;-70
2022/12/14 03:03:16;;;;;;;18.33;11.65;;;5.60;99.90;;;;;;5031155;28;20076;-70
2022/12/14 03:06:25;;;;;;;14.93;10.93;;;5.60;99.90;;;;;;5031319;28;20396;-70
2022/12/14 03:09:30;;;;;;;17.75;11.88;;;5.60;99.90;;;;;;5031019;28;20048;-70
2022/12/14 03:12:39;;;;;;;14.88;10.55;;;5.50;99.90;;;;;;5031304;28;20049;-71
2022/12/14 03:15:53;;;;;;;15.35;10.27;;;5.50;99.90;;;;;;5031030;28;20037;-70
2022/12/14 03:19:00;;;;;;;19.02;11.38;;;5.50;99.90;;;;;;5030975;28;20048;-70
2022/12/14 03:22:13;;;;;;;18.75;11.63;;;5.50;99.90;;;;;;5031064;28;20048;-70
2022/12/14 03:25:27;;;;;;;20.23;11.20;;;5.50;99.90;;;;;;5030656;28;20069;-70
2022/12/14 03:28:43;;;;;;;17.33;11.32;;;5.40;99.90;;;;;;5030001;28;20040;-70
2022/12/14 03:32:00;;;;;;;18.48;12.60;;;5.40;99.90;;;;;;5030474;28;20052;-70
2022/12/14 03:35:17;;;;;;;19.15;12.93;;;5.50;99.90;;;;;;5030373;28;20048;-70
2022/12/14 03:38:34;;;;;;;15.55;11.10;;;5.40;99.90;;;;;;5030557;28;20057;-70
2022/12/14 03:42:10;;;;;;;23.27;14.18;;;5.30;99.90;;;;;;5030938;28;20040;-70
2022/12/14 03:45:20;;;;;;;19.70;13.57;;;5.30;99.90;;;;;;5030695;28;20499;-70
2022/12/14 03:48:40;;;;;;;22.20;15.35;;;5.40;99.90;;;;;;5029672;28;20105;-70
2022/12/14 03:52:03;;;;;;;28.38;14.75;;;5.40;99.90;;;;;;5030628;28;20056;-70
2022/12/14 03:55:32;;;;;;;24.45;14.30;;;5.40;99.90;;;;;;5030265;28;20033;-70
2022/12/14 03:59:01;;;;;;;22.00;13.98;;;5.40;99.90;;;;;;5030381;28;20499;-70
2022/12/14 04:02:14;;;;;;;19.70;13.27;;;5.50;99.90;;;;;;5036812;28;20052;-70
2022/12/14 04:05:38;;;;;;;19.85;13.35;;;5.50;99.90;;;;;;5036645;28;20391;-70
2022/12/14 04:09:26;;;;;;;15.48;10.13;;;5.60;99.90;;;;;;5036903;28;20036;-70
2022/12/14 04:19:48;;;;;;;22.08;12.75;;;5.60;99.90;;;;;;5017726;28;20400;-70
2022/12/14 04:22:59;;;;;;;14.30;10.23;;;5.60;99.90;;;;;;5036994;28;20475;-70
2022/12/14 04:26:08;;;;;;;16.77;10.90;;;5.60;99.90;;;;;;5035748;28;20048;-70
2022/12/14 04:32:50;;;;;;;16.58;11.55;;;5.50;99.90;;;;;;5036798;28;20036;-70
2022/12/14 04:35:58;;;;;;;13.18;9.80;;;5.50;99.90;;;;;;5037414;28;20381;-70
2022/12/14 04:39:07;;;;;;;15.15;10.75;;;5.40;99.90;;;;;;5036686;28;20396;-71
2022/12/14 04:42:14;;;;;;;15.00;10.95;;;5.40;99.90;;;;;;5036889;28;20040;-70
2022/12/14 04:45:32;;;;;;;17.55;10.38;;;5.50;99.90;;;;;;5036452;28;20052;-70
2022/12/14 04:48:59;;;;;;;14.02;10.18;;;5.40;99.90;;;;;;5036621;28;20516;-70
2022/12/14 04:52:16;;;;;;;16.60;11.13;;;5.40;99.90;;;;;;5036863;28;20057;-70
2022/12/14 04:55:37;;;;;;;14.82;10.07;;;5.50;99.90;;;;;;5036459;28;20423;-70
2022/12/14 04:58:41;;;;;;;14.43;10.68;;;5.60;99.90;;;;;;5037125;28;20044;-70
2022/12/14 05:02:08;;;;;;;17.75;11.10;;;5.60;99.90;;;;;;5036973;28;20081;-70
2022/12/14 05:05:18;;;;;;;15.20;11.50;;;5.50;99.90;;;;;;5036590;28;20080;-70
2022/12/14 05:08:56;;;;;;;16.52;11.52;;;5.60;99.90;;;;;;5036463;28;20045;-70
2022/12/14 05:12:06;;;;;;;16.65;10.90;;;5.60;99.90;;;;;;5034451;28;20049;-70
2022/12/14 05:15:22;;;;;;;22.08;12.27;;;5.60;99.90;;;;;;5033020;28;20036;-70
2022/12/14 05:18:26;;;;;;;14.50;11.07;;;5.70;99.90;;;;;;5033249;28;20045;-70
2022/12/14 05:21:48;;;;;;;19.67;11.48;;;5.70;99.90;;;;;;5032951;28;20068;-70
2022/12/14 05:24:52;;;;;;;16.85;10.73;;;5.70;99.90;;;;;;5032536;28;20068;-70
2022/12/14 05:27:56;;;;;;;16.63;11.40;;;5.70;99.90;;;;;;5032949;28;20056;-70
2022/12/14 05:31:00;;;;;;;18.00;12.25;;;5.70;99.90;;;;;;5031846;28;20068;-70
2022/12/14 05:34:04;;;;;;;17.52;12.48;;;5.80;99.90;;;;;;5033097;28;20108;-70
2022/12/14 05:37:08;;;;;;;19.20;12.90;;;5.70;99.90;;;;;;5032840;28;20048;-70
2022/12/14 05:40:12;;;;;;;21.20;12.73;;;5.70;99.90;;;;;;5032736;28;20525;-70
2022/12/14 05:43:16;;;;;;;18.45;13.38;;;5.70;99.90;;;;;;5032261;28;20053;-70
2022/12/14 05:46:21;;;;;;;18.23;13.05;;;5.70;99.90;;;;;;5032493;28;20036;-71
2022/12/14 05:49:25;;;;;;;20.65;12.57;;;5.70;99.90;;;;;;5032254;28;20040;-70
2022/12/14 05:52:29;;;;;;;20.33;12.68;;;5.70;99.90;;;;;;5032761;28;20064;-70
2022/12/14 05:55:45;;;;;;;18.35;12.05;;;5.60;99.90;;;;;;5032847;28;20060;-70
2022/12/14 05:58:50;;;;;;;22.77;13.38;;;5.60;99.90;;;;;;5033178;28;20040;-70
2022/12/14 06:01:54;;;;;;;19.58;13.25;;;5.60;99.90;;;;;;5032406;28;20044;-71
2022/12/14 06:04:58;;;;;;;20.40;13.23;;;5.60;99.90;;;;;;5032108;28;20049;-71
2022/12/14 06:08:02;;;;;;;20.27;13.52;;;5.60;99.90;;;;;;5032539;28;20404;-70
2022/12/14 06:11:08;;;;;;;18.65;13.23;;;5.70;99.90;;;;;;5032046;28;20045;-71
2022/12/14 06:14:13;;;;;;;17.25;11.88;;;5.70;99.90;;;;;;5031732;28;20045;-70
2022/12/14 06:17:17;;;;;;;16.05;10.70;;;5.70;99.90;;;;;;5031076;28;20049;-71
2022/12/14 06:20:21;;;;;;;18.63;10.75;;;5.70;99.90;;;;;;5032041;28;20404;-71
2022/12/14 06:23:26;;;;;;;18.85;12.95;;;5.70;99.90;;;;;;5031054;28;20068;-71
2022/12/14 06:26:32;;;;;;;19.88;12.23;;;5.60;99.90;;;;;;5031972;28;20040;-70
2022/12/14 06:29:36;;;;;;;21.67;13.63;;;5.60;99.90;;;;;;5031290;28;20187;-70
2022/12/14 06:32:41;;;;;;;21.60;13.63;;;5.60;99.90;;;;;;5031904;28;20040;-71
2022/12/14 06:35:46;;;;;;;21.55;13.80;;;5.70;99.90;;;;;;5031385;28;20392;-70
2022/12/14 06:38:50;;;;;;;32.20;19.40;;;5.70;99.90;;;;;;5032404;28;20052;-70
2022/12/14 06:41:54;;;;;;;47.47;25.02;;;5.70;99.90;;;;;;5032346;28;20530;-71
2022/12/14 06:44:58;;;;;;;34.35;20.83;;;5.80;99.90;;;;;;5031496;28;20052;-71
2022/12/14 06:48:02;;;;;;;29.25;17.30;;;5.80;99.90;;;;;;5032479;28;20052;-71
2022/12/14 06:51:08;;;;;;;23.00;14.60;;;5.70;99.90;;;;;;5031704;28;20119;-71
2022/12/14 06:54:14;;;;;;;22.10;14.73;;;5.70;99.90;;;;;;5030979;28;20072;-71
2022/12/14 06:57:18;;;;;;;24.23;12.93;;;5.80;99.90;;;;;;5029996;28;20040;-70
2022/12/14 07:00:25;;;;;;;17.33;11.60;;;5.80;99.90;;;;;;5031157;28;20048;-69
2022/12/14 07:03:29;;;;;;;16.90;11.88;;;5.80;99.90;;;;;;5030969;28;20048;-71
2022/12/14 07:06:38;;;;;;;17.92;11.38;;;5.80;99.90;;;;;;5031149;28;20057;-71
2022/12/14 07:09:42;;;;;;;17.08;10.77;;;5.90;99.90;;;;;;5031366;28;20056;-71
2022/12/14 07:12:47;;;;;;;18.35;11.68;;;5.90;99.90;;;;;;5029434;28;20041;-70
2022/12/14 07:15:54;;;;;;;18.90;11.43;;;5.90;99.90;;;;;;5030558;28;20048;-71
2022/12/14 07:18:59;;;;;;;18.55;10.90;;;5.90;99.90;;;;;;5030869;28;20384;-71
2022/12/14 07:22:03;;;;;;;16.23;11.10;;;5.90;99.90;;;;;;5030338;28;20660;-71
2022/12/14 07:25:08;;;;;;;15.25;9.82;;;6.00;99.90;;;;;;5030340;28;20049;-70
2022/12/14 07:28:14;;;;;;;18.92;11.20;;;6.00;99.90;;;;;;5029144;28;20052;-70
2022/12/14 07:31:22;;;;;;;14.65;9.73;;;6.10;99.90;;;;;;5027953;28;20040;-70
2022/12/14 07:34:26;;;;;;;16.63;10.07;;;6.10;99.90;;;;;;5025246;28;20036;-70
2022/12/14 07:37:30;;;;;;;15.68;10.63;;;6.20;99.90;;;;;;5029697;28;20037;-70
2022/12/14 07:40:35;;;;;;;17.10;10.35;;;6.20;99.90;;;;;;5026994;28;20052;-70
2022/12/14 07:43:41;;;;;;;15.68;9.40;;;6.30;99.90;;;;;;5025648;28;20047;-70
2022/12/14 07:46:45;;;;;;;17.15;10.48;;;6.40;99.90;;;;;;5026663;28;20048;-70
2022/12/14 07:49:49;;;;;;;15.18;10.35;;;6.50;99.90;;;;;;5025710;28;20071;-71
2022/12/14 07:52:55;;;;;;;14.18;9.13;;;6.70;99.90;;;;;;5029873;28;20044;-70
2022/12/14 07:56:05;;;;;;;14.48;9.10;;;6.90;99.90;;;;;;5029015;28;20392;-70
2022/12/14 07:59:15;;;;;;;12.50;8.90;;;7.00;99.90;;;;;;5017344;28;20041;-70
2022/12/14 08:02:18;;;;;;;12.32;7.85;;;7.00;99.90;;;;;;5024828;28;20061;-70
2022/12/14 08:05:22;;;;;;;12.93;7.40;;;7.00;99.90;;;;;;5028231;28;20037;-70
2022/12/14 08:08:26;;;;;;;12.38;8.27;;;7.00;99.90;;;;;;5025623;28;20052;-70
2022/12/14 08:11:31;;;;;;;15.45;10.82;;;7.00;99.90;;;;;;5027500;28;20610;-70
2022/12/14 08:14:35;;;;;;;22.90;14.77;;;6.90;99.90;;;;;;5027974;28;20037;-70
2022/12/14 08:17:40;;;;;;;18.52;13.13;;;6.90;99.90;;;;;;5020435;28;20508;-70
2022/12/14 08:20:51;;;;;;;22.58;14.88;;;6.90;99.90;;;;;;5026271;28;20044;-70
2022/12/14 08:23:56;;;;;;;15.43;11.10;;;6.80;99.90;;;;;;5025262;28;20511;-70
2022/12/14 08:27:01;;;;;;;14.27;9.75;;;6.80;99.90;;;;;;5026509;28;20044;-70
2022/12/14 08:30:06;;;;;;;14.52;9.50;;;6.80;99.90;;;;;;5029181;28;20057;-70
2022/12/14 08:33:11;;;;;;;14.70;9.82;;;6.80;99.90;;;;;;5029540;28;20040;-70
2022/12/14 08:36:23;;;;;;;13.73;8.98;;;6.80;99.90;;;;;;5030244;28;20515;-70
2022/12/14 08:39:28;;;;;;;15.53;8.30;;;6.80;99.90;;;;;;5029622;28;20496;-70
2022/12/14 08:42:33;;;;;;;12.63;8.30;;;6.80;99.90;;;;;;5030771;28;20049;-70
2022/12/14 08:45:37;;;;;;;25.90;10.88;;;6.90;99.90;;;;;;5021762;28;20044;-70
2022/12/14 08:48:41;;;;;;;16.63;9.43;;;6.90;99.90;;;;;;5033353;28;20051;-70
2022/12/14 08:51:45;;;;;;;15.02;9.85;;;6.90;99.90;;;;;;5026445;28;20045;-70
2022/12/14 08:54:49;;;;;;;19.83;12.48;;;7.00;99.90;;;;;;5030786;28;20045;-71
2022/12/14 08:57:53;;;;;;;19.65;12.98;;;7.00;99.90;;;;;;5025475;28;20041;-71
2022/12/14 09:01:06;;;;;;;40.17;19.52;;;7.10;99.90;;;;;;5029940;28;20048;-71
2022/12/14 09:04:11;;;;;;;31.10;14.43;;;7.20;99.90;;;;;;5032094;28;20040;-70
2022/12/14 09:07:15;;;;;;;28.33;14.48;;;7.40;99.90;;;;;;5027043;28;20048;-69
2022/12/14 09:10:19;;;;;;;14.50;8.65;;;7.60;99.90;;;;;;5025311;28;20048;-70
2022/12/14 09:13:24;;;;;;;15.45;9.35;;;7.60;99.90;;;;;;5029620;28;20041;-70
2022/12/14 09:16:29;;;;;;;14.90;10.23;;;7.50;99.90;;;;;;5031150;28;20403;-70
2022/12/14 09:19:33;;;;;;;16.50;10.23;;;7.40;99.90;;;;;;5030606;28;20751;-71
2022/12/14 09:22:37;;;;;;;20.20;10.68;;;7.20;99.90;;;;;;5030511;28;20052;-71
2022/12/14 09:25:42;;;;;;;17.08;10.70;;;7.30;99.90;;;;;;5029187;28;20045;-71
2022/12/14 09:28:49;;;;;;;82.13;17.00;;;7.50;99.90;;;;;;5032012;28;20512;-71
2022/12/14 09:31:54;;;;;;;415.73;33.47;;;7.70;99.90;;;;;;5029518;28;20037;-71
2022/12/14 09:34:58;;;;;;;29.05;14.57;;;7.60;99.90;;;;;;5030253;28;20044;-70
2022/12/14 09:38:05;;;;;;;77.53;20.73;;;7.90;99.90;;;;;;5028647;28;20379;-71
2022/12/14 09:41:32;;;;;;;80.30;19.00;;;8.10;99.90;;;;;;5030120;28;20052;-71
2022/12/14 09:45:01;;;;;;;42.92;15.98;;;7.70;99.90;;;;;;5031210;28;20052;-70
2022/12/14 09:48:13;;;;;;;45.60;24.02;;;7.50;99.90;;;;;;5031539;28;20045;-71
2022/12/14 09:51:21;;;;;;;24.08;14.75;;;7.90;99.90;;;;;;5028946;28;20049;-70
2022/12/14 09:54:32;;;;;;;24.80;16.58;;;8.30;99.90;;;;;;5028917;28;20210;-71
2022/12/14 09:57:40;;;;;;;29.38;18.48;;;8.60;99.90;;;;;;5030579;28;20041;-71
2022/12/14 10:00:55;;;;;;;27.23;16.83;;;8.80;99.90;;;;;;5030161;28;20044;-71
2022/12/14 10:04:05;;;;;;;35.13;21.15;;;9.10;99.90;;;;;;5031935;28;20056;-70
2022/12/14 10:07:46;;;;;;;30.05;18.73;;;9.20;99.90;;;;;;5038857;28;20570;-71
2022/12/14 10:11:02;;;;;;;26.73;16.48;;;9.20;99.90;;;;;;5031853;28;20040;-71
2022/12/14 10:14:42;;;;;;;22.67;15.18;;;9.10;99.90;;;;;;5029490;28;20044;-71
2022/12/14 10:18:04;;;;;;;27.15;15.77;;;8.80;99.90;;;;;;5030249;28;20053;-71
2022/12/14 10:21:15;;;;;;;21.75;14.80;;;8.60;99.90;;;;;;5028637;28;20044;-70
2022/12/14 10:24:42;;;;;;;186.35;26.25;;;8.40;99.90;;;;;;5015141;28;20048;-71
2022/12/14 10:27:55;;;;;;;48.80;19.17;;;7.80;99.90;;;;;;5029633;28;20044;-71
2022/12/14 10:31:00;;;;;;;28.98;18.70;;;7.70;99.90;;;;;;5029553;28;20045;-71
2022/12/14 10:34:17;;;;;;;27.58;17.30;;;7.70;99.90;;;;;;5030227;28;20060;-70
2022/12/14 10:37:41;;;;;;;32.08;19.85;;;7.80;99.90;;;;;;5028172;28;20211;-71
2022/12/14 10:40:52;;;;;;;23.05;14.00;;;7.90;99.90;;;;;;5030158;28;20048;-71
2022/12/14 10:44:26;;;;;;;22.10;14.57;;;8.10;99.90;;;;;;5026083;28;20048;-71
2022/12/14 10:47:39;;;;;;;22.95;12.18;;;8.20;99.90;;;;;;5027558;28;20056;-71
2022/12/14 10:50:57;;;;;;;13.23;8.57;;;8.20;99.90;;;;;;5028096;28;20060;-71
2022/12/14 10:54:24;;;;;;;11.32;7.82;;;8.20;99.90;;;;;;5027861;28;20040;-71
2022/12/14 10:57:27;;;;;;;15.75;8.98;;;8.20;99.90;;;;;;5034132;28;20515;-71
2022/12/14 11:00:31;;;;;;;12.60;8.95;;;8.10;99.90;;;;;;5030288;28;20056;-72
2022/12/14 11:03:35;;;;;;;11.80;8.52;;;8.10;99.90;;;;;;5035681;28;20504;-71
2022/12/14 11:06:40;;;;;;;10.68;7.38;;;8.10;99.90;;;;;;5030201;28;20052;-72
2022/12/14 11:09:45;;;;;;;9.90;7.18;;;8.10;99.90;;;;;;5027912;28;20044;-72
2022/12/14 11:13:05;;;;;;;13.63;9.40;;;8.20;99.90;;;;;;5026573;28;20068;-72
2022/12/14 11:16:26;;;;;;;11.80;8.63;;;8.30;99.90;;;;;;5029723;28;20036;-71
2022/12/14 11:19:30;;;;;;;12.52;7.97;;;8.30;99.90;;;;;;5030641;28;20052;-71
2022/12/14 11:22:43;;;;;;;18.85;10.68;;;8.30;99.90;;;;;;5026552;28;20391;-72
2022/12/14 11:25:50;;;;;;;17.70;11.43;;;8.30;99.90;;;;;;5026421;28;20400;-72
2022/12/14 11:28:57;;;;;;;19.98;13.35;;;8.40;99.90;;;;;;5030312;28;20052;-72
2022/12/14 11:32:03;;;;;;;25.75;14.65;;;8.30;99.90;;;;;;5032796;28;20063;-72
2022/12/14 11:35:18;;;;;;;232.90;22.45;;;8.20;99.90;;;;;;5025770;28;20511;-72
2022/12/14 11:38:23;;;;;;;154.95;21.58;;;8.10;99.90;;;;;;5027446;28;20530;-72
2022/12/14 11:41:37;;;;;;;123.68;20.65;;;8.10;99.90;;;;;;5034241;28;20041;-72
2022/12/14 11:44:45;;;;;;;59.50;15.52;;;8.10;99.90;;;;;;5014986;28;20500;-71
2022/12/14 11:48:14;;;;;;;85.85;15.68;;;8.10;99.90;;;;;;5031839;28;20072;-71
2022/12/14 11:51:18;;;;;;;67.70;15.15;;;8.20;99.90;;;;;;5029451;28;20396;-71
2022/12/14 11:54:23;;;;;;;65.93;15.38;;;8.20;99.90;;;;;;5029573;28;20104;-72
2022/12/14 11:57:31;;;;;;;85.65;13.90;;;8.20;99.90;;;;;;5048337;28;20120;-72
2022/12/14 12:00:48;;;;;;;14.80;9.35;;;8.20;99.90;;;;;;5024967;28;20401;-73
2022/12/14 12:03:57;;;;;;;13.85;9.50;;;8.20;99.90;;;;;;5036576;28;20044;-72
2022/12/14 12:07:12;;;;;;;19.85;9.10;;;8.20;99.90;;;;;;5027700;28;20052;-71
2022/12/14 12:10:19;;;;;;;14.68;8.95;;;8.20;99.90;;;;;;5012461;28;20053;-71
2022/12/14 12:13:31;;;;;;;12.32;8.50;;;8.40;99.90;;;;;;5029141;28;20396;-72
2022/12/14 12:16:42;;;;;;;11.85;8.43;;;8.50;99.90;;;;;;5030439;28;20045;-72
2022/12/14 12:19:50;;;;;;;13.93;9.20;;;8.60;99.90;;;;;;5036194;28;20427;-72
2022/12/14 12:23:05;;;;;;;11.73;7.93;;;8.70;99.90;;;;;;5033549;28;20056;-71
2022/12/14 12:26:21;;;;;;;13.70;7.93;;;8.70;99.90;;;;;;5033634;28;20044;-71
2022/12/14 12:29:32;;;;;;;15.27;7.40;;;8.60;99.90;;;;;;5038428;28;20040;-72
2022/12/14 12:32:44;;;;;;;10.70;8.10;;;8.60;99.90;;;;;;5033387;28;20048;-72
2022/12/14 12:35:49;;;;;;;;;;;8.60;99.90;;;;;;5014824;28;20388;-72
2022/12/14 12:39:14;;;;;;;12.45;8.68;;;8.50;99.90;;;;;;5029765;28;20413;-72
2022/12/14 12:42:56;;;;;;;11.30;7.47;;;8.40;99.90;;;;;;5029393;28;20503;-72
2022/12/14 12:46:12;;;;;;;13.13;8.17;;;8.50;99.90;;;;;;5017081;28;20052;-71
2022/12/14 12:49:16;;;;;;;12.65;8.00;;;8.50;99.90;;;;;;5032434;28;20355;-72
2022/12/14 12:52:26;;;;;;;10.18;7.03;;;8.50;99.90;;;;;;5029989;28;20056;-72
2022/12/14 12:55:40;;;;;;;8.65;6.65;;;8.50;99.90;;;;;;5029287;28;20052;-71
2022/12/14 12:58:46;;;;;;;16.80;7.70;;;8.50;99.90;;;;;;5027389;28;20155;-71
2022/12/14 13:01:53;;;;;;;12.30;7.63;;;8.50;99.90;;;;;;5038518;28;20044;-71
2022/12/14 13:05:02;;;;;;;12.90;9.27;;;8.50;99.90;;;;;;5028357;28;20052;-72
2022/12/14 13:08:35;;;;;;;14.60;7.72;;;8.50;99.90;;;;;;5028498;28;20400;-72
2022/12/14 13:11:41;;;;;;;10.73;7.38;;;8.40;99.90;;;;;;5033235;28;20048;-72
2022/12/14 13:14:45;;;;;;;10.73;7.40;;;8.30;99.90;;;;;;5025419;28;20053;-72
2022/12/14 13:18:03;;;;;;;11.60;7.65;;;8.30;99.90;;;;;;5027135;28;20571;-72
2022/12/14 13:21:38;;;;;;;10.00;6.65;;;8.20;99.90;;;;;;5030210;28;20679;-72
2022/12/14 13:24:47;;;;;;;9.68;6.65;;;8.10;99.90;;;;;;5029357;28;20774;-72
2022/12/14 13:28:05;;;;;;;10.02;6.72;;;8.10;99.90;;;;;;5026145;28;20044;-71
2022/12/14 13:31:19;;;;;;;9.40;6.18;;;8.00;99.90;;;;;;5033977;28;20041;-71
2022/12/14 13:34:32;;;;;;;8.60;6.38;;;8.00;99.90;;;;;;5027211;28;20108;-71
2022/12/14 13:37:41;;;;;;;15.65;10.30;;;8.10;99.90;;;;;;5027647;28;20048;-71
2022/12/14 13:41:06;;;;;;;12.07;8.48;;;8.20;99.90;;;;;;5024196;28;20048;-71
2022/12/14 13:44:46;;;;;;;25.00;8.43;;;8.30;99.90;;;;;;5026675;28;20061;-71
2022/12/14 13:47:54;;;;;;;12.05;8.38;;;8.40;99.90;;;;;;5033715;28;20426;-71
2022/12/14 13:51:07;;;;;;;14.10;10.18;;;8.50;99.90;;;;;;5026057;28;20048;-71
2022/12/14 13:54:33;;;;;;;47.13;33.30;;;8.60;99.90;;;;;;5024968;28;20048;-72
2022/12/14 13:57:38;;;;;;;12.82;9.98;;;8.50;99.90;;;;;;5034432;28;20487;-72
2022/12/14 14:01:06;;;;;;;16.67;11.10;;;8.50;99.90;;;;;;5016417;28;20036;-71
2022/12/14 14:04:09;;;;;;;17.75;9.93;;;8.40;99.90;;;;;;5026714;28;20044;-72
2022/12/14 14:07:24;;;;;;;12.77;9.05;;;8.40;99.90;;;;;;5027174;28;20041;-71
2022/12/14 14:10:36;;;;;;;15.25;8.43;;;8.00;99.90;;;;;;5029503;28;20048;-71
2022/12/14 14:13:41;;;;;;;13.60;9.50;;;7.70;99.90;;;;;;5028590;28;20053;-71
2022/12/14 14:16:58;;;;;;;16.63;9.95;;;7.50;99.90;;;;;;5038389;28;20052;-71
2022/12/14 14:20:25;;;;;;;13.57;9.50;;;7.70;99.90;;;;;;5035082;28;20052;-71
2022/12/14 14:23:31;;;;;;;12.25;8.88;;;7.80;99.90;;;;;;5030174;28;20032;-71
2022/12/14 14:26:39;;;;;;;13.30;9.38;;;7.90;99.90;;;;;;5033639;28;20383;-71
2022/12/14 14:29:47;;;;;;;15.07;9.13;;;7.80;99.90;;;;;;5038982;28;20459;-71
2022/12/14 14:32:52;;;;;;;14.40;9.73;;;7.70;99.90;;;;;;5028347;28;20396;-71
2022/12/14 14:36:34;;;;;;;35.92;11.52;;;7.80;99.90;;;;;;5033142;28;20049;-71
2022/12/14 14:39:39;;;;;;;17.33;9.23;;;7.90;99.90;;;;;;5036794;28;20516;-72
2022/12/14 14:42:53;;;;;;;15.02;9.35;;;8.00;99.90;;;;;;5035277;28;20376;-71
2022/12/14 14:46:03;;;;;;;12.63;7.10;;;8.00;99.90;;;;;;5037113;28;20059;-71
2022/12/14 14:49:19;;;;;;;10.45;7.60;;;7.80;99.90;;;;;;5045082;28;20041;-71
2022/12/14 14:52:38;;;;;;;9.05;6.47;;;7.50;99.90;;;;;;5037551;28;20044;-71
2022/12/14 14:55:59;;;;;;;12.13;7.40;;;7.40;99.90;;;;;;5036457;28;20028;-71
2022/12/14 14:59:16;;;;;;;12.43;7.23;;;7.40;99.90;;;;;;5040176;28;20073;-71
2022/12/14 15:02:30;;;;;;;9.73;6.63;;;7.40;99.90;;;;;;5036224;28;20044;-71
2022/12/14 15:05:35;;;;;;;11.52;7.38;;;7.40;99.90;;;;;;5032013;28;20471;-71
2022/12/14 15:08:45;;;;;;;9.48;6.88;;;7.50;99.90;;;;;;5050563;28;20064;-71
2022/12/14 15:11:52;;;;;;;12.15;6.57;;;7.50;99.90;;;;;;5030766;28;20064;-71
2022/12/14 15:15:00;;;;;;;9.57;5.85;;;7.40;99.90;;;;;;5030970;28;20499;-71
2022/12/14 15:18:26;;;;;;;8.77;6.03;;;7.40;99.90;;;;;;5035909;28;20037;-71
2022/12/14 15:21:31;;;;;;;8.75;5.30;;;7.30;99.90;;;;;;5031737;28;20041;-71
2022/12/14 15:24:42;;;;;;;7.53;4.93;;;7.20;99.90;;;;;;5033067;28;20613;-71
2022/12/14 15:27:47;;;;;;;8.27;5.28;;;7.30;99.90;;;;;;5031009;28;20053;-72
2022/12/14 15:30:53;;;;;;;9.90;5.35;;;7.30;99.90;;;;;;5037219;28;20056;-71
2022/12/14 15:33:59;;;;;;;11.18;6.05;;;7.20;99.90;;;;;;5044814;28;20372;-71
2022/12/14 15:37:03;;;;;;;9.73;5.85;;;7.30;99.90;;;;;;5035719;28;20044;-71
2022/12/14 15:40:15;;;;;;;8.88;5.20;;;7.30;99.90;;;;;;5037791;28;20032;-71
2022/12/14 15:43:20;;;;;;;7.80;5.13;;;7.30;99.90;;;;;;5045848;28;20048;-71
2022/12/14 15:46:28;;;;;;;11.80;6.13;;;7.30;99.90;;;;;;5039864;28;20504;-71
2022/12/14 15:49:32;;;;;;;9.00;6.22;;;7.30;99.90;;;;;;5036680;28;20036;-71
2022/12/14 15:52:38;;;;;;;9.75;6.13;;;7.40;99.90;;;;;;5037307;28;20048;-71
2022/12/14 15:55:43;;;;;;;11.45;6.70;;;7.30;99.90;;;;;;5031426;28;20427;-71
2022/12/14 15:58:49;;;;;;;11.52;6.70;;;7.30;99.90;;;;;;5032245;28;20036;-71
2022/12/14 16:02:15;;;;;;;14.18;8.60;;;7.30;99.90;;;;;;5036391;28;20083;-71
2022/12/14 16:05:21;;;;;;;17.73;10.25;;;7.30;99.90;;;;;;5038021;28;20064;-72
2022/12/14 16:08:27;;;;;;;13.30;8.60;;;7.30;99.90;;;;;;5036233;28;20044;-71
2022/12/14 16:11:48;;;;;;;14.73;9.40;;;7.30;99.90;;;;;;5033035;28;20068;-71
2022/12/14 16:15:00;;;;;;;24.42;13.75;;;7.20;99.90;;;;;;5042462;28;20044;-71
2022/12/14 16:18:04;;;;;;;23.45;10.32;;;7.20;99.90;;;;;;5038941;28;20044;-71
2022/12/14 16:21:26;;;;;;;16.95;9.20;;;7.20;99.90;;;;;;5030946;28;20036;-71
2022/12/14 16:24:30;;;;;;;14.98;10.02;;;6.90;99.90;;;;;;5030463;28;20036;-71
2022/12/14 16:27:41;;;;;;;19.20;10.98;;;6.80;99.90;;;;;;5032532;28;20037;-71
2022/12/14 16:31:07;;;;;;;24.90;13.93;;;6.80;99.90;;;;;;5029893;28;20491;-71
2022/12/14 16:34:19;;;;;;;25.50;13.88;;;6.90;99.90;;;;;;5035428;28;20041;-71